• Join FlightAware (Why Join?)
  • Login
  • US Flag 
06:14AM EDT


 

Airport Tracker/Info


-or-


 

Live Flight TrackerFlight Track Log ✈ N3746H ✈ 26-Apr-2013 ✈ KSLC - KSMF

Flight Track Log - Related Links

Times and Time Zones

All times are in EDT time to prevent confusion due to time zone crossing. See the N3746H flight status page for this flight to view local times or setup timezone preferences in your user account.

Time Position Orientation Groundspeed Altitude Reporting Facility
EDT Latitude Longitude Course Direction KTS MPH feet Rate Location/Type
12:04AM 40.7692 -111.9978 270° West 188 216 5,000  Level Salt Lake Center
12:05AM 40.7519 -112.0728 253° West 223 257 7,000 1,860 Climbing Salt Lake Center
12:05AM 40.7622 -112.1047 293° West 243 280 7,900 2,400 Climbing Salt Lake Center
12:06AM 40.7808 -112.1581 295° West 253 291 9,500 2,640 Climbing Salt Lake Center
12:07AM 40.8559 -112.5091 259° West  Level FlightAware Approximate
12:07AM 40.8133 -112.2528 294° West 278 320 12,400  Level Salt Lake Center
12:08AM 40.8500 -112.6608 270° West  Level FlightAware Approximate
12:08AM 40.8478 -112.3586 293° West 314 361 13,800  Level Salt Lake Center
12:09AM 40.8333 -112.8084 270° West  Level FlightAware Approximate
12:09AM 40.8689 -112.4961 282° West 384 442 15,900  Level Salt Lake Center
12:10AM 40.8575 -112.6467 264° West 413 475 17,900 2,100 Climbing Salt Lake Center
12:11AM 40.8450 -112.8039 264° West 432 497 20,300 2,220 Climbing Salt Lake Center
12:12AM 40.8417 -112.9656 268° West 442 509 22,500 1,920 Climbing Salt Lake Center
12:13AM 40.8336 -113.1308 266° West 452 520 24,300 1,740 Climbing Salt Lake Center
12:14AM 40.7994 -113.2953 255° West 465 535 26,100 1,620 Climbing Salt Lake Center
12:15AM 40.7642 -113.4631 255° West 474 545 27,600 1,860 Climbing Salt Lake Center
12:16AM 40.7244 -113.6653 256° West 476 548 30,000 1,920 Climbing Salt Lake Center
12:17AM 40.6911 -113.8322 255° West 473 544 31,600 1,500 Climbing Salt Lake Center
12:18AM 40.6575 -113.9972 255° West 468 539 33,100 1,440 Climbing Salt Lake Center
12:19AM 40.6242 -114.1619 255° West 468 539 34,600 1,380 Climbing Salt Lake Center
12:20AM 40.5908 -114.3233 255° West 460 529 36,000 660 Climbing Salt Lake Center
12:21AM 40.5567 -114.4833 254° West 456 525 36,000  Level Salt Lake Center
12:22AM 40.5242 -114.6414 255° West 451 519 36,000  Level Salt Lake Center
12:23AM 40.4906 -114.8017 255° West 454 522 36,000 600 Level Salt Lake Center
12:24AM 40.4514 -114.9789 254° West 452 520 37,300 960 Climbing Salt Lake Center
12:25AM 40.4208 -115.1300 255° West 449 517 38,000 300 Climbing Salt Lake Center
12:26AM 40.3875 -115.2808 254° West 450 518 38,000  Level Salt Lake Center
12:27AM 40.3486 -115.4578 254° West 451 519 38,000  Level Salt Lake Center
12:28AM 40.3158 -115.6083 254° West 450 518 38,000  Level Salt Lake Center
12:29AM 40.2781 -115.7819 254° West 445 512 38,000  Level Salt Lake Center
12:30AM 40.2428 -115.9325 253° West 448 516 38,000  Level Salt Lake Center
12:31AM 40.2092 -116.0808 254° West 442 509 38,000  Level Salt Lake Center
12:32AM 40.1700 -116.2558 254° West 447 514 38,000  Level Salt Lake Center
12:33AM 40.1372 -116.4050 254° West 445 512 38,000  Level Salt Lake Center
12:34AM 40.1019 -116.5544 253° West 445 512 38,000  Level Salt Lake Center
12:35AM 40.0614 -116.7297 253° West 449 517 38,000  Level Salt Lake Center
12:36AM 40.0219 -116.9039 254° West 447 514 38,000  Level Oakland Center
12:37AM 39.9864 -117.0567 253° West 454 522 38,000  Level Oakland Center
12:38AM 39.9514 -117.2061 253° West 453 521 38,000  Level Oakland Center
12:39AM 39.9153 -117.3581 253° West 453 521 38,000  Level Salt Lake Center
12:40AM 39.8794 -117.5075 253° West 451 519 38,000  Level Salt Lake Center
12:41AM 39.8369 -117.6828 253° West 453 521 38,000  Level Salt Lake Center
12:42AM 39.7981 -117.8433 253° West 451 519 38,000  Level Salt Lake Center
12:44AM 39.7614 -117.9975 253° West 449 517 38,000  Level Oakland Center
12:45AM 39.7233 -118.1533 252° West 455 524 38,000  Level Oakland Center
12:46AM 39.6858 -118.3056 252° West 446 513 38,000  Level Oakland Center
12:47AM 39.6486 -118.4586 253° West 447 514 38,000  Level Oakland Center
12:48AM 39.6103 -118.6119 252° West 453 521 38,000  Level Oakland Center
12:49AM 39.5658 -118.7922 252° West 451 519 38,000  Level Oakland Center
12:50AM 39.5275 -118.9439 252° West 453 521 38,000  Level Oakland Center
12:51AM 39.4883 -119.0958 252° West 452 520 38,000 -60 Level Oakland Center
12:52AM 39.4489 -119.2475 251° West 450 518 37,900 -600 Descending Oakland Center
12:53AM 39.4092 -119.3983 251° West 446 513 36,900 -960 Descending Oakland Center
12:54AM 39.3725 -119.5475 252° West 439 505 36,000 -960 Descending Oakland Center
12:55AM 39.3350 -119.6953 252° West 436 502 35,000 -1,440 Descending Oakland Center
12:56AM 39.2958 -119.8469 252° West 446 513 33,100 -1,920 Descending Oakland Center
12:57AM 39.2556 -119.9986 251° West 450 518 31,200 -2,400 Descending Oakland Center
12:58AM 39.2097 -120.1575 250° West 452 520 28,300 -3,000 Descending Oakland Center
12:59AM 39.1678 -120.3133 251° West 461 531 25,200 -2,880 Descending Oakland Center
01:00AM 39.1300 -120.4697 253° West 459 528 22,600 -2,520 Descending Oakland Center
01:01AM 39.0919 -120.6197 252° West 446 513 20,100 -2,580 Descending Oakland Center
01:02AM 39.0514 -120.7667 250° West 439 505 17,400 -3,300 Descending Oakland Center
01:03AM 39.0008 -120.9333 249° West 422 486 13,400 -3,600 Descending Oakland Center
01:04AM 38.9614 -121.0667 249° West 405 466 10,200 -2,220 Descending Oakland Center
01:04AM 38.9333 -121.1333 242° Southwest 353 406 10,000 -1,020 Descending Northern Cal TRACON
01:05AM 38.9167 -121.2333 258° West 289 333 8,700 -1,800 Descending Northern Cal TRACON
01:06AM 38.8833 -121.3167 243° Southwest 263 303 6,400 -2,220 Descending Northern Cal TRACON
01:07AM 38.8500 -121.4000 243° Southwest 251 289 4,300 -1,680 Descending Northern Cal TRACON
01:08AM 38.8333 -121.4833 256° West 205 236 3,100 -1,200 Descending Northern Cal TRACON
01:09AM 38.8167 -121.5500 252° West 191 220 2,000 -840 Descending Northern Cal TRACON
01:10AM 38.7833 -121.5833 218° Southwest 158 182 1,500 -540 Descending Northern Cal TRACON